Arapahoe, NE

3:45 PM CDT on July 24, 2014 (GMT -0500)
Kearney Municipal (KEAR) Elev 2129 ft | 40.73 °N, 99.01 °W | Change Station

Current weather conditions updated 10 minutes ago

Clear
Clear
90 °F
Feels Like 95 °F
N
26
Wind Variable Wind from SE
Gusts 33 mph

Today is forecast to be Much Warmer than yesterday.

Today
High -- | Low -- °F
--% Chance of Precip.
Yesterday
High -- | Low -- °F
Precip. -- in
6:30 AM 9:01 PM
Waning Crescent, 4% visible
Pressure 29.93 in
Visibility 10.0 miles
Clouds Clear
Heat Index 95 °F
Dew Point 70 °F
Humidity 52%
Rainfall 0.00 in
Snow Depth Not available.
UV 10 out of 12
Pollen 7.20 out of 12
Air Quality Not available.
Flu Activity Not available.
METAR KEAR 242035Z AUTO 14023G29KT 10SM CLR 32/21 A2993 RMK AO1

More Conditions Fewer Conditions

Pressure 29.93 in
Visibility 10.0 miles
Clouds Clear
Heat Index 95 °F
Dew Point 70 °F
Humidity 52%
Rainfall 0.00 in
Snow Depth Not available.
UV 10 out of 12
Pollen 7.20 out of 12
Air Quality Not available.
Flu Activity Not available.
METAR KEAR 242035Z AUTO 14023G29KT 10SM CLR 32/21 A2993 RMK AO1

More Conditions Fewer Conditions

10-Day Weather Forecast

Almanac

Astronomy

Jul. 24, 2014 Rise Set
Actual Time 6:30 AM CDT 9:01 PM CDT
Civil Twilight 5:58 AM CDT 9:32 PM CDT
Nautical Twilight 5:19 AM CDT 10:11 PM CDT
Astronomical Twilight 4:36 AM CDT 10:54 PM CDT
Moon 4:39 AM CDT 7:17 PM CDT
Length of Visible Light 15h 34m
Length of Day
14h 31m
Tomorrow will be 1m 46s shorter.
Waning Crescent, 4% of the Moon is Illuminated
Today
Waning Crescent
Jul 26
New
Aug 3
First Quarter
Aug 10
Full
Aug 17
Last Quarter

Today's Extremes

State Highs State Lows

Community

WunderPhotos

Upload Photos

1,737,125 photos uploaded!

WunderBlogs® & News

Nearby

Snow Depth

Station Depth Elevation
No new snow has been reported.

Earthquake Activity

City Distance Mag. Time & Date
No recent earthquake activity has been reported nearby.
Minimum magnitude displayed is 2.5.

Coastal Water Temperatures

Place Temperature
No Stations Reporting

Nearby Weather Stations

There are no personal weather stations in this area.